sensor_id;sensor_type;location;lat;lon;timestamp;P1;durP1;ratioP1;P2;durP2;ratioP2
62401;SDS011;48440;51.224;22.506;2023-09-30T00:01:43;24.77;;;16.40;;
62401;SDS011;48440;51.224;22.506;2023-09-30T00:04:09;24.80;;;16.27;;
62401;SDS011;48440;51.224;22.506;2023-09-30T00:06:34;21.67;;;15.80;;
62401;SDS011;48440;51.224;22.506;2023-09-30T00:09:00;21.95;;;16.33;;
62401;SDS011;48440;51.224;22.506;2023-09-30T00:11:26;23.55;;;15.82;;
62401;SDS011;48440;51.224;22.506;2023-09-30T00:13:51;25.67;;;15.60;;
62401;SDS011;48440;51.224;22.506;2023-09-30T00:16:17;24.38;;;14.90;;
62401;SDS011;48440;51.224;22.506;2023-09-30T00:18:43;22.08;;;14.88;;
62401;SDS011;48440;51.224;22.506;2023-09-30T00:21:09;22.13;;;16.45;;
62401;SDS011;48440;51.224;22.506;2023-09-30T00:23:36;22.52;;;16.20;;
62401;SDS011;48440;51.224;22.506;2023-09-30T00:26:01;28.05;;;15.80;;
62401;SDS011;48440;51.224;22.506;2023-09-30T00:28:27;25.42;;;15.38;;
62401;SDS011;48440;51.224;22.506;2023-09-30T00:30:53;20.65;;;15.48;;
62401;SDS011;48440;51.224;22.506;2023-09-30T00:33:19;19.73;;;15.15;;
62401;SDS011;48440;51.224;22.506;2023-09-30T00:35:44;25.50;;;15.35;;
62401;SDS011;48440;51.224;22.506;2023-09-30T00:38:10;22.02;;;14.73;;
62401;SDS011;48440;51.224;22.506;2023-09-30T00:40:35;21.83;;;15.32;;
62401;SDS011;48440;51.224;22.506;2023-09-30T00:43:01;20.30;;;15.27;;
62401;SDS011;48440;51.224;22.506;2023-09-30T00:45:27;22.15;;;14.77;;
62401;SDS011;48440;51.224;22.506;2023-09-30T00:47:53;20.90;;;14.27;;
62401;SDS011;48440;51.224;22.506;2023-09-30T00:50:19;25.17;;;15.55;;
62401;SDS011;48440;51.224;22.506;2023-09-30T00:52:45;21.45;;;14.68;;
62401;SDS011;48440;51.224;22.506;2023-09-30T00:55:13;20.75;;;14.95;;
62401;SDS011;48440;51.224;22.506;2023-09-30T00:57:40;26.25;;;15.52;;
62401;SDS011;48440;51.224;22.506;2023-09-30T01:00:06;21.00;;;15.27;;
62401;SDS011;48440;51.224;22.506;2023-09-30T01:02:32;20.92;;;14.55;;
62401;SDS011;48440;51.224;22.506;2023-09-30T01:04:59;21.58;;;15.30;;
62401;SDS011;48440;51.224;22.506;2023-09-30T01:07:26;20.00;;;13.98;;
62401;SDS011;48440;51.224;22.506;2023-09-30T01:09:51;21.00;;;14.75;;
62401;SDS011;48440;51.224;22.506;2023-09-30T01:12:17;21.85;;;14.50;;
62401;SDS011;48440;51.224;22.506;2023-09-30T01:14:42;18.63;;;14.05;;
62401;SDS011;48440;51.224;22.506;2023-09-30T01:17:08;22.38;;;14.70;;
62401;SDS011;48440;51.224;22.506;2023-09-30T01:19:34;21.25;;;14.40;;
62401;SDS011;48440;51.224;22.506;2023-09-30T01:22:00;25.40;;;15.20;;
62401;SDS011;48440;51.224;22.506;2023-09-30T01:24:30;22.35;;;13.32;;
62401;SDS011;48440;51.224;22.506;2023-09-30T01:27:03;21.85;;;13.73;;
62401;SDS011;48440;51.224;22.506;2023-09-30T01:29:28;21.83;;;14.02;;
62401;SDS011;48440;51.224;22.506;2023-09-30T01:31:54;24.13;;;14.40;;
62401;SDS011;48440;51.224;22.506;2023-09-30T01:34:19;19.13;;;13.90;;
62401;SDS011;48440;51.224;22.506;2023-09-30T01:36:45;18.77;;;13.43;;
62401;SDS011;48440;51.224;22.506;2023-09-30T01:39:10;20.27;;;14.05;;
62401;SDS011;48440;51.224;22.506;2023-09-30T01:41:37;21.92;;;14.07;;
62401;SDS011;48440;51.224;22.506;2023-09-30T01:44:03;19.98;;;14.25;;
62401;SDS011;48440;51.224;22.506;2023-09-30T01:46:29;22.30;;;14.35;;
62401;SDS011;48440;51.224;22.506;2023-09-30T01:48:54;24.90;;;14.77;;
62401;SDS011;48440;51.224;22.506;2023-09-30T01:51:20;21.35;;;15.10;;
62401;SDS011;48440;51.224;22.506;2023-09-30T01:53:46;19.20;;;14.10;;
62401;SDS011;48440;51.224;22.506;2023-09-30T01:56:12;21.98;;;15.93;;
62401;SDS011;48440;51.224;22.506;2023-09-30T01:58:38;22.63;;;15.32;;
62401;SDS011;48440;51.224;22.506;2023-09-30T02:01:03;19.83;;;14.25;;
62401;SDS011;48440;51.224;22.506;2023-09-30T02:03:29;19.23;;;14.15;;
62401;SDS011;48440;51.224;22.506;2023-09-30T02:05:55;22.40;;;14.68;;
62401;SDS011;48440;51.224;22.506;2023-09-30T02:08:22;22.00;;;13.75;;
62401;SDS011;48440;51.224;22.506;2023-09-30T02:10:47;19.20;;;14.20;;
62401;SDS011;48440;51.224;22.506;2023-09-30T02:13:13;19.58;;;14.05;;
62401;SDS011;48440;51.224;22.506;2023-09-30T02:15:41;21.98;;;15.00;;
62401;SDS011;48440;51.224;22.506;2023-09-30T02:18:07;21.33;;;14.38;;
62401;SDS011;48440;51.224;22.506;2023-09-30T02:20:32;20.30;;;14.35;;
62401;SDS011;48440;51.224;22.506;2023-09-30T02:22:59;24.83;;;14.60;;
62401;SDS011;48440;51.224;22.506;2023-09-30T02:25:24;20.83;;;14.23;;
62401;SDS011;48440;51.224;22.506;2023-09-30T02:27:50;19.75;;;14.00;;
62401;SDS011;48440;51.224;22.506;2023-09-30T02:30:16;18.05;;;13.18;;
62401;SDS011;48440;51.224;22.506;2023-09-30T02:32:42;22.55;;;14.38;;
62401;SDS011;48440;51.224;22.506;2023-09-30T02:35:08;19.60;;;14.85;;
62401;SDS011;48440;51.224;22.506;2023-09-30T02:37:37;21.55;;;14.45;;
62401;SDS011;48440;51.224;22.506;2023-09-30T02:40:03;21.90;;;14.52;;
62401;SDS011;48440;51.224;22.506;2023-09-30T02:42:38;20.92;;;14.20;;
62401;SDS011;48440;51.224;22.506;2023-09-30T02:45:07;18.85;;;14.27;;
62401;SDS011;48440;51.224;22.506;2023-09-30T02:47:34;20.48;;;15.02;;
62401;SDS011;48440;51.224;22.506;2023-09-30T02:50:00;22.15;;;14.25;;
62401;SDS011;48440;51.224;22.506;2023-09-30T02:52:26;23.02;;;15.23;;
62401;SDS011;48440;51.224;22.506;2023-09-30T02:54:54;21.83;;;15.13;;
62401;SDS011;48440;51.224;22.506;2023-09-30T02:57:20;20.50;;;14.07;;
62401;SDS011;48440;51.224;22.506;2023-09-30T02:59:46;22.73;;;14.93;;
62401;SDS011;48440;51.224;22.506;2023-09-30T03:02:12;21.38;;;13.48;;
62401;SDS011;48440;51.224;22.506;2023-09-30T03:04:38;24.38;;;14.07;;
62401;SDS011;48440;51.224;22.506;2023-09-30T03:07:03;18.83;;;14.60;;
62401;SDS011;48440;51.224;22.506;2023-09-30T03:09:29;22.10;;;14.10;;
62401;SDS011;48440;51.224;22.506;2023-09-30T03:11:54;19.20;;;14.57;;
62401;SDS011;48440;51.224;22.506;2023-09-30T03:14:21;21.13;;;14.40;;
62401;SDS011;48440;51.224;22.506;2023-09-30T03:16:48;20.33;;;14.35;;
62401;SDS011;48440;51.224;22.506;2023-09-30T03:19:13;18.70;;;14.07;;
62401;SDS011;48440;51.224;22.506;2023-09-30T03:21:41;22.30;;;14.18;;
62401;SDS011;48440;51.224;22.506;2023-09-30T03:24:07;26.17;;;14.38;;
62401;SDS011;48440;51.224;22.506;2023-09-30T03:26:33;21.58;;;14.60;;
62401;SDS011;48440;51.224;22.506;2023-09-30T03:28:59;24.45;;;15.60;;
62401;SDS011;48440;51.224;22.506;2023-09-30T03:31:25;21.30;;;14.32;;
62401;SDS011;48440;51.224;22.506;2023-09-30T03:33:51;20.20;;;14.40;;
62401;SDS011;48440;51.224;22.506;2023-09-30T03:36:22;23.17;;;14.40;;
62401;SDS011;48440;51.224;22.506;2023-09-30T03:38:49;20.75;;;13.85;;
62401;SDS011;48440;51.224;22.506;2023-09-30T03:41:24;19.75;;;14.00;;
62401;SDS011;48440;51.224;22.506;2023-09-30T03:43:49;20.50;;;13.68;;
62401;SDS011;48440;51.224;22.506;2023-09-30T03:46:15;20.27;;;13.93;;
62401;SDS011;48440;51.224;22.506;2023-09-30T03:48:41;20.58;;;14.60;;
62401;SDS011;48440;51.224;22.506;2023-09-30T03:51:12;20.92;;;14.43;;
62401;SDS011;48440;51.224;22.506;2023-09-30T03:53:39;19.90;;;13.73;;
62401;SDS011;48440;51.224;22.506;2023-09-30T03:56:08;20.25;;;14.15;;
62401;SDS011;48440;51.224;22.506;2023-09-30T03:58:36;21.42;;;15.00;;
62401;SDS011;48440;51.224;22.506;2023-09-30T04:01:06;17.48;;;13.95;;
62401;SDS011;48440;51.224;22.506;2023-09-30T04:03:32;22.80;;;14.90;;
62401;SDS011;48440;51.224;22.506;2023-09-30T04:05:58;21.55;;;14.30;;
62401;SDS011;48440;51.224;22.506;2023-09-30T04:08:24;19.40;;;14.38;;
62401;SDS011;48440;51.224;22.506;2023-09-30T04:10:49;20.45;;;15.13;;
62401;SDS011;48440;51.224;22.506;2023-09-30T04:13:15;19.42;;;14.32;;
62401;SDS011;48440;51.224;22.506;2023-09-30T04:15:41;20.60;;;14.50;;
62401;SDS011;48440;51.224;22.506;2023-09-30T04:18:07;21.38;;;14.65;;
62401;SDS011;48440;51.224;22.506;2023-09-30T04:20:33;20.75;;;15.27;;
62401;SDS011;48440;51.224;22.506;2023-09-30T04:22:58;20.90;;;14.43;;
62401;SDS011;48440;51.224;22.506;2023-09-30T04:25:23;23.30;;;14.90;;
62401;SDS011;48440;51.224;22.506;2023-09-30T04:27:50;22.85;;;14.10;;
62401;SDS011;48440;51.224;22.506;2023-09-30T04:30:15;22.40;;;14.50;;
62401;SDS011;48440;51.224;22.506;2023-09-30T04:32:41;21.08;;;14.60;;
62401;SDS011;48440;51.224;22.506;2023-09-30T04:35:07;19.15;;;15.10;;
62401;SDS011;48440;51.224;22.506;2023-09-30T04:37:33;19.35;;;14.57;;
62401;SDS011;48440;51.224;22.506;2023-09-30T04:40:00;23.10;;;14.85;;
62401;SDS011;48440;51.224;22.506;2023-09-30T04:42:26;20.83;;;15.23;;
62401;SDS011;48440;51.224;22.506;2023-09-30T04:44:52;24.08;;;15.32;;
62401;SDS011;48440;51.224;22.506;2023-09-30T04:47:20;24.73;;;15.50;;
62401;SDS011;48440;51.224;22.506;2023-09-30T04:49:46;21.95;;;15.73;;
62401;SDS011;48440;51.224;22.506;2023-09-30T04:52:12;23.80;;;14.98;;
62401;SDS011;48440;51.224;22.506;2023-09-30T04:54:37;22.45;;;15.05;;
62401;SDS011;48440;51.224;22.506;2023-09-30T04:57:03;22.35;;;14.30;;
62401;SDS011;48440;51.224;22.506;2023-09-30T04:59:28;21.05;;;14.68;;
62401;SDS011;48440;51.224;22.506;2023-09-30T05:01:54;23.70;;;16.02;;
62401;SDS011;48440;51.224;22.506;2023-09-30T05:04:21;23.50;;;14.70;;
62401;SDS011;48440;51.224;22.506;2023-09-30T05:06:48;21.80;;;14.55;;
62401;SDS011;48440;51.224;22.506;2023-09-30T05:09:14;20.27;;;15.20;;
62401;SDS011;48440;51.224;22.506;2023-09-30T05:11:40;23.15;;;15.65;;
62401;SDS011;48440;51.224;22.506;2023-09-30T05:14:05;20.65;;;15.88;;
62401;SDS011;48440;51.224;22.506;2023-09-30T05:16:31;23.83;;;15.82;;
62401;SDS011;48440;51.224;22.506;2023-09-30T05:18:56;22.15;;;15.25;;
62401;SDS011;48440;51.224;22.506;2023-09-30T05:21:22;22.30;;;15.38;;
62401;SDS011;48440;51.224;22.506;2023-09-30T05:23:47;21.85;;;15.27;;
62401;SDS011;48440;51.224;22.506;2023-09-30T05:26:13;18.67;;;15.20;;
62401;SDS011;48440;51.224;22.506;2023-09-30T05:28:38;20.50;;;15.23;;
62401;SDS011;48440;51.224;22.506;2023-09-30T05:31:04;22.33;;;15.32;;
62401;SDS011;48440;51.224;22.506;2023-09-30T05:33:30;22.58;;;15.85;;
62401;SDS011;48440;51.224;22.506;2023-09-30T05:35:55;20.85;;;14.95;;
62401;SDS011;48440;51.224;22.506;2023-09-30T05:38:21;25.20;;;14.88;;
62401;SDS011;48440;51.224;22.506;2023-09-30T05:40:48;22.20;;;15.18;;
62401;SDS011;48440;51.224;22.506;2023-09-30T05:43:14;25.27;;;15.15;;
62401;SDS011;48440;51.224;22.506;2023-09-30T05:45:40;26.63;;;14.73;;
62401;SDS011;48440;51.224;22.506;2023-09-30T05:48:14;24.67;;;15.23;;
62401;SDS011;48440;51.224;22.506;2023-09-30T05:50:40;20.25;;;14.77;;
62401;SDS011;48440;51.224;22.506;2023-09-30T05:53:07;26.52;;;15.38;;
62401;SDS011;48440;51.224;22.506;2023-09-30T05:55:35;21.17;;;15.18;;
62401;SDS011;48440;51.224;22.506;2023-09-30T05:58:01;20.38;;;15.60;;
62401;SDS011;48440;51.224;22.506;2023-09-30T06:00:26;22.00;;;15.18;;
62401;SDS011;48440;51.224;22.506;2023-09-30T06:03:00;21.42;;;14.82;;
62401;SDS011;48440;51.224;22.506;2023-09-30T06:05:26;20.65;;;14.70;;
62401;SDS011;48440;51.224;22.506;2023-09-30T06:07:55;21.15;;;14.93;;
62401;SDS011;48440;51.224;22.506;2023-09-30T06:10:20;25.10;;;15.80;;
62401;SDS011;48440;51.224;22.506;2023-09-30T06:12:46;21.75;;;15.35;;
62401;SDS011;48440;51.224;22.506;2023-09-30T06:15:13;22.90;;;15.50;;
62401;SDS011;48440;51.224;22.506;2023-09-30T06:17:47;19.92;;;15.32;;
62401;SDS011;48440;51.224;22.506;2023-09-30T06:20:17;20.40;;;14.80;;
62401;SDS011;48440;51.224;22.506;2023-09-30T06:22:46;23.92;;;15.48;;
62401;SDS011;48440;51.224;22.506;2023-09-30T06:25:14;18.83;;;14.85;;
62401;SDS011;48440;51.224;22.506;2023-09-30T06:27:42;24.38;;;16.35;;
62401;SDS011;48440;51.224;22.506;2023-09-30T06:30:08;22.05;;;16.00;;
62401;SDS011;48440;51.224;22.506;2023-09-30T06:32:34;26.52;;;17.42;;
62401;SDS011;48440;51.224;22.506;2023-09-30T06:35:01;27.00;;;16.63;;
62401;SDS011;48440;51.224;22.506;2023-09-30T06:37:28;28.10;;;17.80;;
62401;SDS011;48440;51.224;22.506;2023-09-30T06:39:54;26.35;;;17.00;;
62401;SDS011;48440;51.224;22.506;2023-09-30T06:42:20;28.70;;;17.65;;
62401;SDS011;48440;51.224;22.506;2023-09-30T06:44:46;26.08;;;17.40;;
62401;SDS011;48440;51.224;22.506;2023-09-30T06:47:12;26.35;;;18.17;;
62401;SDS011;48440;51.224;22.506;2023-09-30T06:49:38;26.17;;;17.55;;
62401;SDS011;48440;51.224;22.506;2023-09-30T06:52:04;28.98;;;18.08;;
62401;SDS011;48440;51.224;22.506;2023-09-30T06:54:33;25.58;;;18.10;;
62401;SDS011;48440;51.224;22.506;2023-09-30T06:56:58;26.70;;;18.02;;
62401;SDS011;48440;51.224;22.506;2023-09-30T06:59:24;24.70;;;17.27;;
62401;SDS011;48440;51.224;22.506;2023-09-30T07:01:51;24.20;;;17.80;;
62401;SDS011;48440;51.224;22.506;2023-09-30T07:04:17;22.90;;;17.15;;
62401;SDS011;48440;51.224;22.506;2023-09-30T07:06:42;26.45;;;18.92;;
62401;SDS011;48440;51.224;22.506;2023-09-30T07:09:08;27.55;;;18.73;;
62401;SDS011;48440;51.224;22.506;2023-09-30T07:11:35;28.17;;;18.92;;
62401;SDS011;48440;51.224;22.506;2023-09-30T07:14:01;25.80;;;18.02;;
62401;SDS011;48440;51.224;22.506;2023-09-30T07:16:26;29.65;;;17.58;;
62401;SDS011;48440;51.224;22.506;2023-09-30T07:18:51;25.35;;;17.02;;
62401;SDS011;48440;51.224;22.506;2023-09-30T07:21:17;26.20;;;17.05;;
62401;SDS011;48440;51.224;22.506;2023-09-30T07:23:43;22.35;;;16.80;;
62401;SDS011;48440;51.224;22.506;2023-09-30T07:26:08;25.50;;;16.63;;
62401;SDS011;48440;51.224;22.506;2023-09-30T07:28:34;26.02;;;16.38;;
62401;SDS011;48440;51.224;22.506;2023-09-30T07:30:59;21.30;;;15.40;;
62401;SDS011;48440;51.224;22.506;2023-09-30T07:33:25;21.52;;;15.27;;
62401;SDS011;48440;51.224;22.506;2023-09-30T07:35:50;22.75;;;14.70;;
62401;SDS011;48440;51.224;22.506;2023-09-30T07:38:16;22.33;;;15.15;;
62401;SDS011;48440;51.224;22.506;2023-09-30T07:40:42;24.80;;;15.55;;
62401;SDS011;48440;51.224;22.506;2023-09-30T07:43:08;24.13;;;15.77;;
62401;SDS011;48440;51.224;22.506;2023-09-30T07:45:33;21.10;;;15.20;;
62401;SDS011;48440;51.224;22.506;2023-09-30T07:47:59;23.90;;;14.40;;
62401;SDS011;48440;51.224;22.506;2023-09-30T07:50:25;19.00;;;13.45;;
62401;SDS011;48440;51.224;22.506;2023-09-30T07:52:50;17.63;;;13.70;;
62401;SDS011;48440;51.224;22.506;2023-09-30T07:55:16;18.17;;;14.07;;
62401;SDS011;48440;51.224;22.506;2023-09-30T07:57:42;19.55;;;13.93;;
62401;SDS011;48440;51.224;22.506;2023-09-30T08:00:08;18.90;;;12.80;;
62401;SDS011;48440;51.224;22.506;2023-09-30T08:02:40;18.45;;;12.27;;
62401;SDS011;48440;51.224;22.506;2023-09-30T08:05:06;17.27;;;13.07;;
62401;SDS011;48440;51.224;22.506;2023-09-30T08:07:32;18.88;;;12.43;;
62401;SDS011;48440;51.224;22.506;2023-09-30T08:09:58;19.30;;;12.30;;
62401;SDS011;48440;51.224;22.506;2023-09-30T08:12:24;17.15;;;12.82;;
62401;SDS011;48440;51.224;22.506;2023-09-30T08:14:49;18.17;;;12.10;;
62401;SDS011;48440;51.224;22.506;2023-09-30T08:17:16;18.60;;;13.82;;
62401;SDS011;48440;51.224;22.506;2023-09-30T08:19:42;22.77;;;14.27;;
62401;SDS011;48440;51.224;22.506;2023-09-30T08:22:09;24.77;;;13.98;;
62401;SDS011;48440;51.224;22.506;2023-09-30T08:24:35;16.63;;;12.82;;
62401;SDS011;48440;51.224;22.506;2023-09-30T08:27:00;18.83;;;13.77;;
62401;SDS011;48440;51.224;22.506;2023-09-30T08:29:26;20.55;;;12.35;;
62401;SDS011;48440;51.224;22.506;2023-09-30T08:31:52;21.23;;;13.77;;
62401;SDS011;48440;51.224;22.506;2023-09-30T08:34:17;23.02;;;13.50;;
62401;SDS011;48440;51.224;22.506;2023-09-30T08:36:45;18.33;;;11.93;;
62401;SDS011;48440;51.224;22.506;2023-09-30T08:39:10;17.27;;;12.68;;
62401;SDS011;48440;51.224;22.506;2023-09-30T08:41:36;18.58;;;13.18;;
62401;SDS011;48440;51.224;22.506;2023-09-30T08:44:02;16.08;;;12.30;;
62401;SDS011;48440;51.224;22.506;2023-09-30T08:46:38;17.10;;;11.73;;
62401;SDS011;48440;51.224;22.506;2023-09-30T08:49:04;16.88;;;11.63;;
62401;SDS011;48440;51.224;22.506;2023-09-30T08:51:34;19.95;;;12.18;;
62401;SDS011;48440;51.224;22.506;2023-09-30T08:54:00;15.77;;;11.90;;
62401;SDS011;48440;51.224;22.506;2023-09-30T08:56:29;21.05;;;12.27;;
62401;SDS011;48440;51.224;22.506;2023-09-30T08:59:00;20.75;;;11.75;;
62401;SDS011;48440;51.224;22.506;2023-09-30T09:01:27;18.67;;;12.02;;
62401;SDS011;48440;51.224;22.506;2023-09-30T09:03:54;17.45;;;12.18;;
62401;SDS011;48440;51.224;22.506;2023-09-30T09:06:20;15.82;;;11.73;;
62401;SDS011;48440;51.224;22.506;2023-09-30T09:08:47;14.63;;;10.90;;
62401;SDS011;48440;51.224;22.506;2023-09-30T09:11:13;18.10;;;11.48;;
62401;SDS011;48440;51.224;22.506;2023-09-30T09:13:50;16.25;;;11.85;;
62401;SDS011;48440;51.224;22.506;2023-09-30T09:16:20;18.13;;;11.13;;
62401;SDS011;48440;51.224;22.506;2023-09-30T09:18:46;17.38;;;11.43;;
62401;SDS011;48440;51.224;22.506;2023-09-30T09:23:45;19.23;;;12.63;;
62401;SDS011;48440;51.224;22.506;2023-09-30T09:26:27;17.85;;;12.10;;
62401;SDS011;48440;51.224;22.506;2023-09-30T09:28:58;16.67;;;11.63;;
62401;SDS011;48440;51.224;22.506;2023-09-30T09:31:25;18.08;;;12.48;;
62401;SDS011;48440;51.224;22.506;2023-09-30T09:33:52;21.77;;;13.05;;
62401;SDS011;48440;51.224;22.506;2023-09-30T09:36:18;21.38;;;13.57;;
62401;SDS011;48440;51.224;22.506;2023-09-30T09:38:50;17.90;;;12.60;;
62401;SDS011;48440;51.224;22.506;2023-09-30T09:41:22;20.40;;;13.50;;
62401;SDS011;48440;51.224;22.506;2023-09-30T09:43:49;20.10;;;13.63;;
62401;SDS011;48440;51.224;22.506;2023-09-30T09:46:15;17.92;;;12.20;;
62401;SDS011;48440;51.224;22.506;2023-09-30T09:48:42;21.02;;;12.55;;
62401;SDS011;48440;51.224;22.506;2023-09-30T09:51:11;16.88;;;12.18;;
62401;SDS011;48440;51.224;22.506;2023-09-30T09:53:38;17.50;;;11.43;;
62401;SDS011;48440;51.224;22.506;2023-09-30T09:56:05;15.40;;;11.65;;
62401;SDS011;48440;51.224;22.506;2023-09-30T09:58:35;16.10;;;10.77;;
62401;SDS011;48440;51.224;22.506;2023-09-30T10:01:03;19.20;;;11.02;;
62401;SDS011;48440;51.224;22.506;2023-09-30T10:03:31;14.25;;;10.93;;
62401;SDS011;48440;51.224;22.506;2023-09-30T10:05:57;15.82;;;11.50;;
62401;SDS011;48440;51.224;22.506;2023-09-30T10:08:29;17.13;;;11.25;;
62401;SDS011;48440;51.224;22.506;2023-09-30T10:11:00;17.55;;;10.70;;
62401;SDS011;48440;51.224;22.506;2023-09-30T10:19:12;17.30;;;10.95;;
62401;SDS011;48440;51.224;22.506;2023-09-30T10:21:39;15.18;;;10.63;;
62401;SDS011;48440;51.224;22.506;2023-09-30T10:29:47;16.25;;;10.63;;
62401;SDS011;48440;51.224;22.506;2023-09-30T10:35:20;15.98;;;11.25;;
62401;SDS011;48440;51.224;22.506;2023-09-30T10:37:46;17.73;;;11.25;;
62401;SDS011;48440;51.224;22.506;2023-09-30T10:40:29;17.98;;;11.55;;
62401;SDS011;48440;51.224;22.506;2023-09-30T10:42:56;17.30;;;10.85;;
62401;SDS011;48440;51.224;22.506;2023-09-30T10:45:42;14.55;;;10.30;;
62401;SDS011;48440;51.224;22.506;2023-09-30T10:51:12;14.25;;;9.43;;
62401;SDS011;48440;51.224;22.506;2023-09-30T10:53:42;14.18;;;9.10;;
62401;SDS011;48440;51.224;22.506;2023-09-30T10:56:10;12.57;;;9.40;;
62401;SDS011;48440;51.224;22.506;2023-09-30T11:01:10;13.40;;;8.70;;
62401;SDS011;48440;51.224;22.506;2023-09-30T11:03:38;12.25;;;8.43;;
62401;SDS011;48440;51.224;22.506;2023-09-30T11:06:03;10.85;;;8.43;;
62401;SDS011;48440;51.224;22.506;2023-09-30T11:08:29;9.57;;;7.53;;
62401;SDS011;48440;51.224;22.506;2023-09-30T11:10:55;12.00;;;8.73;;
62401;SDS011;48440;51.224;22.506;2023-09-30T11:13:21;13.00;;;8.52;;
62401;SDS011;48440;51.224;22.506;2023-09-30T11:15:47;14.68;;;8.52;;
62401;SDS011;48440;51.224;22.506;2023-09-30T11:18:24;13.32;;;9.05;;
62401;SDS011;48440;51.224;22.506;2023-09-30T11:20:50;11.60;;;8.70;;
62401;SDS011;48440;51.224;22.506;2023-09-30T11:23:29;13.05;;;10.00;;
62401;SDS011;48440;51.224;22.506;2023-09-30T11:25:55;16.45;;;10.75;;
62401;SDS011;48440;51.224;22.506;2023-09-30T11:28:21;13.77;;;9.82;;
62401;SDS011;48440;51.224;22.506;2023-09-30T11:30:55;14.73;;;10.00;;
62401;SDS011;48440;51.224;22.506;2023-09-30T11:33:25;15.48;;;10.50;;
62401;SDS011;48440;51.224;22.506;2023-09-30T11:36:01;16.00;;;9.88;;
62401;SDS011;48440;51.224;22.506;2023-09-30T11:38:29;12.98;;;9.95;;
62401;SDS011;48440;51.224;22.506;2023-09-30T11:41:01;18.48;;;10.98;;
62401;SDS011;48440;51.224;22.506;2023-09-30T11:43:32;15.88;;;9.85;;
62401;SDS011;48440;51.224;22.506;2023-09-30T11:46:08;12.98;;;9.55;;
62401;SDS011;48440;51.224;22.506;2023-09-30T11:48:39;15.85;;;11.02;;
62401;SDS011;48440;51.224;22.506;2023-09-30T11:51:21;15.43;;;10.90;;
62401;SDS011;48440;51.224;22.506;2023-09-30T11:53:49;13.55;;;10.20;;
62401;SDS011;48440;51.224;22.506;2023-09-30T11:56:16;15.35;;;11.13;;
62401;SDS011;48440;51.224;22.506;2023-09-30T11:58:41;15.60;;;10.30;;
62401;SDS011;48440;51.224;22.506;2023-09-30T12:01:07;17.20;;;11.05;;
62401;SDS011;48440;51.224;22.506;2023-09-30T12:03:32;14.07;;;10.98;;
62401;SDS011;48440;51.224;22.506;2023-09-30T12:06:04;16.60;;;12.40;;
62401;SDS011;48440;51.224;22.506;2023-09-30T12:08:30;18.13;;;12.00;;
62401;SDS011;48440;51.224;22.506;2023-09-30T12:10:55;19.92;;;13.57;;
62401;SDS011;48440;51.224;22.506;2023-09-30T12:13:21;17.88;;;12.48;;
62401;SDS011;48440;51.224;22.506;2023-09-30T12:15:46;17.38;;;13.55;;
62401;SDS011;48440;51.224;22.506;2023-09-30T12:18:12;19.45;;;14.05;;
62401;SDS011;48440;51.224;22.506;2023-09-30T12:20:42;22.70;;;15.45;;
62401;SDS011;48440;51.224;22.506;2023-09-30T12:23:08;22.85;;;14.93;;
62401;SDS011;48440;51.224;22.506;2023-09-30T12:25:33;23.05;;;16.00;;
62401;SDS011;48440;51.224;22.506;2023-09-30T12:27:59;23.25;;;15.57;;
62401;SDS011;48440;51.224;22.506;2023-09-30T12:30:24;23.48;;;15.65;;
62401;SDS011;48440;51.224;22.506;2023-09-30T12:32:51;20.95;;;14.80;;
62401;SDS011;48440;51.224;22.506;2023-09-30T12:35:19;23.77;;;15.48;;
62401;SDS011;48440;51.224;22.506;2023-09-30T12:37:46;23.73;;;16.52;;
62401;SDS011;48440;51.224;22.506;2023-09-30T12:40:11;19.67;;;14.95;;
62401;SDS011;48440;51.224;22.506;2023-09-30T12:42:39;26.40;;;16.67;;
62401;SDS011;48440;51.224;22.506;2023-09-30T12:45:04;23.77;;;16.48;;
62401;SDS011;48440;51.224;22.506;2023-09-30T12:47:30;24.17;;;16.50;;
62401;SDS011;48440;51.224;22.506;2023-09-30T12:49:56;25.15;;;16.40;;
62401;SDS011;48440;51.224;22.506;2023-09-30T12:52:22;22.38;;;17.55;;
62401;SDS011;48440;51.224;22.506;2023-09-30T12:54:49;23.77;;;18.70;;
62401;SDS011;48440;51.224;22.506;2023-09-30T12:57:15;25.23;;;18.55;;
62401;SDS011;48440;51.224;22.506;2023-09-30T12:59:42;25.77;;;18.83;;
62401;SDS011;48440;51.224;22.506;2023-09-30T13:02:11;22.55;;;17.83;;
62401;SDS011;48440;51.224;22.506;2023-09-30T13:04:37;21.48;;;17.30;;
62401;SDS011;48440;51.224;22.506;2023-09-30T13:07:07;23.23;;;18.08;;
62401;SDS011;48440;51.224;22.506;2023-09-30T13:09:33;25.48;;;18.65;;
62401;SDS011;48440;51.224;22.506;2023-09-30T13:11:58;26.98;;;19.35;;
62401;SDS011;48440;51.224;22.506;2023-09-30T13:14:25;24.95;;;19.27;;
62401;SDS011;48440;51.224;22.506;2023-09-30T13:16:53;30.63;;;19.65;;
62401;SDS011;48440;51.224;22.506;2023-09-30T13:19:19;27.63;;;20.08;;
62401;SDS011;48440;51.224;22.506;2023-09-30T13:21:46;27.88;;;21.30;;
62401;SDS011;48440;51.224;22.506;2023-09-30T13:24:12;29.85;;;21.15;;
62401;SDS011;48440;51.224;22.506;2023-09-30T13:26:39;31.33;;;22.80;;
62401;SDS011;48440;51.224;22.506;2023-09-30T13:29:04;28.58;;;21.55;;
62401;SDS011;48440;51.224;22.506;2023-09-30T13:31:30;33.95;;;23.30;;
62401;SDS011;48440;51.224;22.506;2023-09-30T13:33:56;34.50;;;22.42;;
62401;SDS011;48440;51.224;22.506;2023-09-30T13:36:21;36.17;;;24.92;;
62401;SDS011;48440;51.224;22.506;2023-09-30T13:38:47;47.30;;;28.80;;
62401;SDS011;48440;51.224;22.506;2023-09-30T13:41:14;45.15;;;27.67;;
62401;SDS011;48440;51.224;22.506;2023-09-30T13:43:40;42.30;;;27.08;;
62401;SDS011;48440;51.224;22.506;2023-09-30T13:46:06;43.05;;;26.90;;
62401;SDS011;48440;51.224;22.506;2023-09-30T13:48:32;43.25;;;26.33;;
62401;SDS011;48440;51.224;22.506;2023-09-30T13:51:05;39.42;;;24.95;;
62401;SDS011;48440;51.224;22.506;2023-09-30T13:53:31;35.90;;;22.02;;
62401;SDS011;48440;51.224;22.506;2023-09-30T13:55:57;32.05;;;21.55;;
62401;SDS011;48440;51.224;22.506;2023-09-30T13:58:22;36.45;;;21.42;;
62401;SDS011;48440;51.224;22.506;2023-09-30T14:00:47;34.63;;;22.58;;
62401;SDS011;48440;51.224;22.506;2023-09-30T14:03:13;37.97;;;21.75;;
62401;SDS011;48440;51.224;22.506;2023-09-30T14:05:39;32.65;;;20.67;;
62401;SDS011;48440;51.224;22.506;2023-09-30T14:08:04;39.15;;;22.02;;
62401;SDS011;48440;51.224;22.506;2023-09-30T14:10:32;37.83;;;22.58;;
62401;SDS011;48440;51.224;22.506;2023-09-30T14:12:58;41.50;;;22.23;;
62401;SDS011;48440;51.224;22.506;2023-09-30T14:15:24;41.28;;;24.05;;
62401;SDS011;48440;51.224;22.506;2023-09-30T14:17:53;42.13;;;24.52;;
62401;SDS011;48440;51.224;22.506;2023-09-30T14:20:22;37.53;;;23.42;;
62401;SDS011;48440;51.224;22.506;2023-09-30T14:22:48;42.47;;;22.85;;
62401;SDS011;48440;51.224;22.506;2023-09-30T14:25:13;38.60;;;22.65;;
62401;SDS011;48440;51.224;22.506;2023-09-30T14:27:39;40.65;;;21.85;;
62401;SDS011;48440;51.224;22.506;2023-09-30T14:30:05;38.65;;;21.40;;